Huancavelica, Peru
Current Conditions -  °F | °C
As of 6:00 AM on Thursday 23 Oct 2014 (Local Time) from SPHO Reporting Station
Broken Clouds Broken Clouds  
Wind Chill: 55°   Ceiling: 8000
Heat Index: 55°   Visibility: 6mi
Dew Point: 48°   Wind: 2mph
Humidity: 77%   Direction: NA
Pressure: 30.39"   Gusts: NA
Location:  12.79°S, 74.99°W
Report Text: SPHO 231100Z VRB02KT 9999 BKN080 13/09 Q1029 RMK PP000
Loading
Personal Weather Stations






























Interactive Weather Map
Tropical Storm Tracking
New forecast layout! Learn more

10-Day Weather Forecast

Advertisements
Track Severe Weather on mobile